Casey, Iowa
Current Conditions -  °F | °C
As of 10:35 AM on Monday 26 Jan 2015 (Local Time) from KADU Reporting Station
Clear Clear  
Wind Chill: 37°   Ceiling: Unl
Heat Index: 43°   Visibility: 10mi
Dew Point: 36°   Wind: 10mph
Humidity: 76%   Direction: 300°WNW
Pressure: 29.84"   Gusts: 20mph
Location:  41.5°N, 94.52°W
Report Text: KADU 261635Z AUTO 30009G17KT 280V340 10SM CLR 06/02 A2984 RMK AO2
Loading
Personal Weather Stations






























Interactive Weather Map New forecast layout! Learn more

10-Day Weather Forecast

Advertisements
Track Severe Weather on mobile